Time;durP1;ratioP1;P1;durP2;ratioP2;P2;SDS_P1;SDS_P2;PMS_P1;PMS_P2;Temp;Humidity;BMP_temperature;BMP_pressure;BME280_temperature;BME280_humidity;BME280_pressure;Samples;Min_cycle;Max_cycle;Signal;HPM_P1;HPM_P2
2023/06/27 00:01:40;;;;;;;0.63;0.53;;;22.10;99.90;;;22.41;49.81;101620.66;4962562;28;97401;-47
2023/06/27 00:04:07;;;;;;;0.80;0.60;;;22.10;99.90;;;22.41;49.95;101614.41;4955767;28;97528;-46
2023/06/27 00:06:37;;;;;;;1.20;0.70;;;22.10;99.90;;;22.40;49.70;101618.06;4950155;28;97338;-48
2023/06/27 00:09:05;;;;;;;1.43;0.60;;;22.10;99.90;;;22.32;49.94;101621.31;4948381;28;97895;-46
2023/06/27 00:11:31;;;;;;;1.00;0.60;;;21.90;99.90;;;22.31;50.48;101621.41;4949082;28;97096;-47
2023/06/27 00:13:58;;;;;;;0.20;0.20;;;21.90;99.90;;;22.31;50.69;101629.47;4946339;28;104713;-48
2023/06/27 00:16:27;;;;;;;0.47;0.40;;;21.90;99.90;;;22.30;50.42;101625.06;4967914;27;97616;-47
2023/06/27 00:18:53;;;;;;;2.40;0.50;;;21.90;99.90;;;22.27;49.66;101624.28;4979423;28;97580;-47
2023/06/27 00:21:19;;;;;;;1.50;0.87;;;21.90;99.90;;;22.23;50.00;101630.84;4970126;27;100550;-44
2023/06/27 00:23:45;;;;;;;1.17;0.60;;;21.80;99.90;;;22.22;50.69;101623.75;4966193;28;97453;-47
2023/06/27 00:26:14;;;;;;;0.90;0.50;;;21.80;99.90;;;22.22;50.61;101622.91;4948922;28;97388;-47
2023/06/27 00:28:40;;;;;;;0.90;0.63;;;21.80;99.90;;;22.18;50.15;101624.94;4965626;27;97162;-44
2023/06/27 00:31:06;;;;;;;0.77;0.33;;;21.80;99.90;;;22.14;50.99;101626.13;4957656;28;110945;-45
2023/06/27 00:33:31;;;;;;;0.57;0.30;;;21.70;99.90;;;22.17;50.97;101631.28;4963980;28;97339;-43
2023/06/27 00:35:57;;;;;;;0.33;0.23;;;21.80;99.90;;;22.21;50.91;101622.03;4965684;28;105323;-49
2023/06/27 00:38:23;;;;;;;0.60;0.27;;;21.90;99.90;;;22.23;51.01;101630.84;4957939;28;97598;-47
2023/06/27 00:40:49;;;;;;;0.53;0.37;;;21.90;99.90;;;22.24;50.75;101626.34;4969744;28;103455;-43
2023/06/27 00:43:14;;;;;;;0.80;0.40;;;21.90;99.90;;;22.23;50.82;101620.09;4967610;27;98116;-43
2023/06/27 00:45:40;;;;;;;0.20;0.20;;;21.90;99.90;;;22.26;50.74;101630.63;4968999;27;97087;-44
2023/06/27 00:48:07;;;;;;;0.70;0.40;;;21.90;99.90;;;22.26;50.99;101625.25;4964050;28;99330;-45
2023/06/27 00:50:33;;;;;;;0.77;0.50;;;22.00;99.90;;;22.27;50.84;101626.97;4964513;27;99139;-44
2023/06/27 00:53:00;;;;;;;0.30;0.30;;;22.00;99.90;;;22.31;50.85;101621.41;4972543;28;97302;-43
2023/06/27 00:55:26;;;;;;;0.90;0.50;;;22.00;99.90;;;22.32;50.76;101623.13;4949493;27;99748;-44
2023/06/27 00:57:53;;;;;;;0.63;0.40;;;22.10;99.90;;;22.31;50.59;101622.28;4977978;27;97109;-47
2023/06/27 01:00:20;;;;;;;1.60;0.43;;;22.00;99.90;;;22.30;50.36;101622.38;4970893;27;103472;-47
2023/06/27 01:02:46;;;;;;;2.23;0.90;;;22.00;99.90;;;22.30;50.63;101619.69;4977386;27;97098;-43
2023/06/27 01:05:14;;;;;;;0.30;0.30;;;22.00;99.90;;;22.30;50.91;101625.06;4980185;27;97685;-46
2023/06/27 01:08:08;;;;;;;0.43;0.33;;;22.00;99.90;;;22.30;50.76;101627.75;4966456;28;97452;-46
2023/06/27 01:11:18;;;;;;;1.40;0.60;;;22.00;99.90;;;22.25;50.33;101618.16;4969344;27;101342;-46
2023/06/27 01:13:52;;;;;;;0.57;0.40;;;21.90;99.90;;;22.22;51.07;101631.81;4954587;28;97524;-45
2023/06/27 01:16:21;;;;;;;0.90;0.50;;;21.80;99.90;;;22.19;51.12;101629.34;4969912;28;97398;-48
2023/06/27 01:18:49;;;;;;;0.70;0.53;;;21.80;99.90;;;22.17;50.82;101625.91;4979007;28;102346;-46
2023/06/27 01:21:19;;;;;;;0.80;0.57;;;21.80;99.90;;;22.17;51.28;101628.59;4971150;28;100240;-45
2023/06/27 01:23:58;;;;;;;1.07;0.60;;;21.80;99.90;;;22.17;50.98;101625.06;4953980;28;97322;-47
2023/06/27 01:26:27;;;;;;;0.70;0.40;;;21.80;99.90;;;22.15;51.10;101627.84;4977577;27;97192;-46
2023/06/27 01:28:53;;;;;;;0.77;0.50;;;21.80;99.90;;;22.14;51.24;101620.75;4967586;27;98159;-42
2023/06/27 01:31:41;;;;;;;1.87;1.10;;;21.70;99.90;;;22.13;50.64;101629.78;4977162;27;102789;-43
2023/06/27 01:34:36;;;;;;;2.10;1.13;;;21.80;99.90;;;22.09;50.59;101617.50;4965504;28;97469;-43
2023/06/27 01:37:21;;;;;;;1.10;0.37;;;21.70;99.90;;;22.08;51.60;101626.53;4964757;27;97512;-43
2023/06/27 01:40:02;;;;;;;1.50;0.70;;;21.70;99.90;;;22.09;51.22;101625.56;4954051;28;101073;-45
2023/06/27 01:42:34;;;;;;;1.53;0.53;;;21.70;99.90;;;22.02;51.18;101626.09;4960516;28;99783;-44
2023/06/27 01:45:03;;;;;;;0.60;0.50;;;21.60;99.90;;;22.02;51.85;101626.94;4967514;28;97071;-43
2023/06/27 01:47:29;;;;;;;1.20;0.70;;;21.60;99.90;;;22.03;51.50;101625.97;4979055;27;97449;-43
2023/06/27 01:49:55;;;;;;;0.50;0.40;;;21.60;99.90;;;22.06;51.76;101628.47;4975811;28;100595;-42
2023/06/27 01:52:21;;;;;;;0.80;0.30;;;21.70;99.90;;;22.06;51.92;101623.09;4967044;28;97367;-43
2023/06/27 01:54:47;;;;;;;1.43;0.50;;;21.70;99.90;;;22.10;51.80;101613.84;4977675;27;104075;-45
2023/06/27 01:57:13;;;;;;;0.60;0.60;;;21.70;99.90;;;22.14;51.69;101620.75;4978512;28;105753;-44
2023/06/27 01:59:39;;;;;;;2.67;1.03;;;21.90;99.90;;;22.15;51.35;101622.47;4979360;28;99983;-42
2023/06/27 02:02:06;;;;;;;2.30;1.00;;;21.90;99.90;;;22.12;50.89;101617.28;4975385;28;97349;-45
2023/06/27 02:04:32;;;;;;;1.37;1.00;;;21.80;99.90;;;22.08;51.67;101620.31;5094723;22;97617;-52
2023/06/27 02:06:58;;;;;;;0.43;0.43;;;21.70;99.90;;;22.08;51.81;101613.09;4977372;27;101134;-51
2023/06/27 02:09:24;;;;;;;0.50;0.40;;;21.70;99.90;;;22.11;51.69;101614.72;4990807;27;97309;-54
2023/06/27 02:11:50;;;;;;;1.07;0.50;;;21.80;99.90;;;22.15;51.69;101613.56;4978883;28;101973;-55
2023/06/27 02:14:16;;;;;;;0.87;0.43;;;21.80;99.90;;;22.17;51.60;101614.31;4968534;28;97582;-52
2023/06/27 02:16:41;;;;;;;2.20;0.50;;;21.90;99.90;;;22.17;51.44;101615.19;4974021;28;97579;-53
2023/06/27 02:19:07;;;;;;;1.37;1.10;;;21.90;99.90;;;22.15;51.00;101611.72;4968095;27;105820;-53
2023/06/27 02:21:33;;;;;;;0.77;0.40;;;21.80;99.90;;;22.13;51.52;101621.72;4981292;27;102901;-54
2023/06/27 02:23:59;;;;;;;0.63;0.40;;;21.80;99.90;;;22.12;51.67;101624.50;4979068;28;97334;-53
2023/06/27 02:26:25;;;;;;;0.40;0.40;;;21.80;99.90;;;22.13;51.61;101613.69;4973614;27;97629;-56
2023/06/27 02:28:50;;;;;;;0.60;0.30;;;21.80;99.90;;;22.18;51.72;101613.34;4976118;28;113629;-55
2023/06/27 02:31:18;;;;;;;1.20;0.53;;;21.90;99.90;;;22.22;51.53;101607.63;4979081;28;97111;-55
2023/06/27 02:33:44;;;;;;;0.50;0.40;;;22.00;99.90;;;22.26;51.57;101609.13;4957547;28;97652;-55
2023/06/27 02:36:09;;;;;;;0.83;0.37;;;22.10;99.90;;;22.31;51.09;101606.16;4973110;27;112004;-56
2023/06/27 02:38:35;;;;;;;0.50;0.30;;;22.10;99.90;;;22.33;50.37;101608.72;4974128;27;106743;-53
2023/06/27 02:41:01;;;;;;;1.10;0.80;;;22.10;99.90;;;22.22;50.33;101607.63;4960906;28;97604;-56
2023/06/27 02:43:27;;;;;;;0.50;0.30;;;21.90;99.90;;;22.17;51.62;101607.13;4970985;28;100052;-52
2023/06/27 02:45:53;;;;;;;1.87;0.90;;;21.80;99.90;;;22.15;51.35;101609.06;4971468;28;100933;-53
2023/06/27 02:48:19;;;;;;;0.90;0.60;;;21.80;99.90;;;22.12;51.85;101614.59;4975971;28;97198;-55
2023/06/27 02:50:49;;;;;;;0.67;0.57;;;21.70;99.90;;;22.11;51.33;101612.91;4979594;27;97466;-55
2023/06/27 02:53:15;;;;;;;0.37;0.37;;;21.70;99.90;;;22.11;51.88;101604.84;4974703;28;96869;-53
2023/06/27 02:55:41;;;;;;;0.50;0.50;;;21.70;99.90;;;22.15;51.86;101606.38;4972742;28;97524;-55
2023/06/27 02:58:07;;;;;;;0.33;0.30;;;21.80;99.90;;;22.21;51.64;101605.06;4978402;27;117056;-56
2023/06/27 03:00:33;;;;;;;1.10;0.70;;;21.90;99.90;;;22.23;51.15;101603.97;4970870;28;106256;-55
2023/06/27 03:02:59;;;;;;;0.83;0.30;;;22.00;99.90;;;22.22;50.91;101607.63;4975850;27;97357;-53
2023/06/27 03:05:25;;;;;;;0.70;0.40;;;21.90;99.90;;;22.19;51.15;101605.16;4983438;28;97671;-58
2023/06/27 03:07:50;;;;;;;1.57;0.80;;;21.90;99.90;;;22.18;51.62;101611.53;4955092;28;106490;-55
2023/06/27 03:10:16;;;;;;;0.80;0.70;;;21.80;99.90;;;22.15;51.34;101614.44;4976708;28;97007;-52
2023/06/27 03:12:42;;;;;;;0.70;0.50;;;21.80;99.90;;;22.11;51.70;101615.56;4978817;28;97382;-55
2023/06/27 03:15:08;;;;;;;0.53;0.40;;;21.70;99.90;;;22.09;51.79;101612.13;4976723;28;98134;-55
2023/06/27 03:17:34;;;;;;;1.57;0.77;;;21.70;99.90;;;22.04;50.31;101613.41;4979759;28;99243;-56
2023/06/27 03:19:59;;;;;;;1.10;0.50;;;21.60;99.90;;;21.99;52.22;101611.03;4974230;28;98268;-54
2023/06/27 03:22:25;;;;;;;1.10;0.53;;;21.50;99.90;;;21.98;52.19;101614.66;4969938;28;97630;-53
2023/06/27 03:24:51;;;;;;;0.40;0.37;;;21.50;99.90;;;22.02;52.16;101615.34;4979107;28;97546;-54
2023/06/27 03:27:23;;;;;;;1.10;0.57;;;21.60;99.90;;;22.04;52.04;101611.56;4974729;28;110154;-54
2023/06/27 03:29:50;;;;;;;1.23;0.60;;;21.70;99.90;;;22.08;52.12;101615.78;4971855;28;104477;-55
2023/06/27 03:32:16;;;;;;;1.50;0.70;;;21.70;99.90;;;22.10;51.61;101616.53;4984225;27;97202;-56
2023/06/27 03:34:42;;;;;;;0.53;0.40;;;21.80;99.90;;;22.10;52.05;101624.59;4978404;27;97114;-53
2023/06/27 03:37:09;;;;;;;0.43;0.40;;;21.80;99.90;;;22.11;51.69;101620.94;4960485;28;98458;-55
2023/06/27 03:39:35;;;;;;;0.67;0.50;;;21.80;99.90;;;22.11;51.98;101615.56;4977458;28;96966;-53
2023/06/27 03:42:00;;;;;;;0.40;0.40;;;21.80;99.90;;;22.14;51.93;101623.44;4981208;27;97852;-52
2023/06/27 03:44:28;;;;;;;0.67;0.50;;;21.90;99.90;;;22.18;51.78;101624.94;4966187;28;97662;-54
2023/06/27 03:46:54;;;;;;;1.30;0.50;;;21.90;99.90;;;22.19;51.52;101613.22;4975512;27;101484;-54
2023/06/27 03:49:19;;;;;;;1.10;0.60;;;21.90;99.90;;;22.18;51.30;101614.19;4976671;28;113542;-55
2023/06/27 03:51:46;;;;;;;0.63;0.53;;;21.90;99.90;;;22.20;51.71;101619.47;4983206;28;99234;-55
2023/06/27 03:54:11;;;;;;;1.93;0.60;;;21.90;99.90;;;22.20;51.56;101628.38;4956849;28;105417;-53
2023/06/27 03:56:37;;;;;;;1.77;0.47;;;21.90;99.90;;;22.22;51.80;101629.13;4979751;27;97875;-55
2023/06/27 03:59:03;;;;;;;0.87;0.63;;;21.90;99.90;;;22.26;51.71;101624.41;4970513;28;104945;-55
2023/06/27 04:01:29;;;;;;;0.60;0.50;;;22.00;99.90;;;22.24;51.44;101621.81;4967732;28;103978;-56
2023/06/27 04:03:54;;;;;;;0.57;0.47;;;22.00;99.90;;;22.25;51.42;101631.59;4980931;28;102803;-53
2023/06/27 04:06:20;;;;;;;0.83;0.60;;;22.00;99.90;;;22.27;51.62;101624.28;4977368;28;101124;-53
2023/06/27 04:08:46;;;;;;;1.10;0.50;;;22.10;99.90;;;22.29;51.47;101623.34;4980869;28;120295;-56
2023/06/27 04:11:12;;;;;;;0.80;0.50;;;22.00;99.90;;;22.29;51.50;101628.72;4976266;28;96916;-54
2023/06/27 04:13:37;;;;;;;0.77;0.53;;;22.00;99.90;;;22.31;51.59;101632.16;4980337;28;97236;-51
2023/06/27 04:16:04;;;;;;;1.10;0.60;;;22.10;99.90;;;22.33;51.40;101627.53;4980738;28;124607;-54
2023/06/27 04:18:30;;;;;;;1.07;0.50;;;22.10;99.90;;;22.35;51.69;101622.91;4971565;28;99174;-56
2023/06/27 04:20:58;;;;;;;0.67;0.37;;;22.20;99.90;;;22.40;51.35;101620.75;4981995;28;97383;-57
2023/06/27 04:23:23;;;;;;;0.63;0.30;;;22.20;99.90;;;22.41;51.13;101619.78;4971109;27;99745;-56
2023/06/27 04:26:08;;;;;;;1.03;0.63;;;22.20;99.90;;;22.40;51.22;101626.13;4981869;28;107980;-59
2023/06/27 04:28:34;;;;;;;0.53;0.53;;;22.20;99.90;;;22.37;51.37;101620.97;4963293;28;97998;-56
2023/06/27 04:31:01;;;;;;;1.13;0.50;;;22.10;99.90;;;22.37;51.35;101615.59;4979452;28;99808;-55
2023/06/27 04:33:28;;;;;;;0.60;0.40;;;22.20;99.90;;;22.39;51.18;101616.34;4977132;27;97029;-56
2023/06/27 04:36:00;;;;;;;0.97;0.83;;;22.20;99.90;;;22.42;51.10;101613.44;4979252;28;97482;-55
2023/06/27 04:38:28;;;;;;;0.80;0.50;;;22.20;99.90;;;22.40;51.09;101623.44;4968166;28;99973;-58
2023/06/27 04:40:54;;;;;;;1.37;0.37;;;22.20;99.90;;;22.40;50.94;101623.44;4986396;28;100741;-54
2023/06/27 04:43:20;;;;;;;0.97;0.57;;;22.10;99.90;;;22.40;51.26;101620.75;4975091;28;97000;-55
2023/06/27 04:45:46;;;;;;;1.03;0.50;;;22.20;99.90;;;22.40;51.21;101618.06;4974876;28;97773;-56
2023/06/27 04:48:12;;;;;;;0.37;0.37;;;22.20;99.90;;;22.40;51.11;101621.63;4978446;28;125963;-58
2023/06/27 04:50:44;;;;;;;0.50;0.50;;;22.20;99.90;;;22.43;51.25;101621.41;4970930;28;105875;-57
2023/06/27 04:53:09;;;;;;;0.40;0.40;;;22.20;99.90;;;22.45;51.26;101626.69;4958508;28;103491;-55
2023/06/27 04:55:35;;;;;;;1.07;0.70;;;22.20;99.90;;;22.46;51.22;101628.41;4977108;27;114550;-58
2023/06/27 04:58:01;;;;;;;0.47;0.37;;;22.20;99.90;;;22.48;51.25;101623.78;4980097;28;97508;-55
2023/06/27 05:00:28;;;;;;;0.83;0.60;;;22.30;99.90;;;22.49;50.65;101630.88;4970530;28;97603;-57
2023/06/27 05:02:53;;;;;;;0.40;0.40;;;22.30;99.90;;;22.48;51.18;101629.16;4983159;28;97091;-53
2023/06/27 05:05:19;;;;;;;0.40;0.40;;;22.30;99.90;;;22.48;50.94;101621.09;4955516;28;113432;-57
2023/06/27 05:07:45;;;;;;;0.73;0.60;;;22.30;99.90;;;22.48;50.64;101634.53;4973473;28;108789;-55
2023/06/27 05:10:10;;;;;;;1.50;1.20;;;22.20;99.90;;;22.45;50.25;101626.69;4961232;28;96749;-53
2023/06/27 05:12:36;;;;;;;0.50;0.50;;;22.20;99.90;;;22.41;51.28;101623.34;4980466;28;97081;-57
2023/06/27 05:15:04;;;;;;;0.77;0.40;;;22.10;99.90;;;22.39;51.21;101627.09;4974958;28;97803;-55
2023/06/27 05:17:30;;;;;;;0.60;0.50;;;22.10;99.90;;;22.39;51.30;101629.78;4984601;28;97662;-56
2023/06/27 05:19:56;;;;;;;0.90;0.50;;;22.10;99.90;;;22.39;51.30;101624.41;4971353;28;97557;-55
2023/06/27 05:22:21;;;;;;;0.50;0.50;;;22.10;99.90;;;22.37;51.02;101621.84;4976498;28;106323;-54
2023/06/27 05:24:47;;;;;;;0.80;0.53;;;22.10;99.90;;;22.33;51.02;101620.34;4981876;28;108365;-53
2023/06/27 05:27:13;;;;;;;0.70;0.50;;;22.00;99.90;;;22.34;51.36;101622.06;4979517;28;102396;-55
2023/06/27 05:29:39;;;;;;;1.43;0.80;;;22.00;99.90;;;22.31;50.92;101621.41;4982055;28;97454;-56
2023/06/27 05:32:05;;;;;;;1.13;0.80;;;22.00;99.90;;;22.26;50.50;101619.88;4973842;28;99316;-55
2023/06/27 05:34:30;;;;;;;2.37;0.93;;;21.90;99.90;;;22.25;51.30;101620.84;4982833;28;98582;-54
2023/06/27 05:36:56;;;;;;;0.60;0.50;;;21.90;99.90;;;22.18;51.90;101627.63;4973139;28;98162;-56
2023/06/27 05:39:22;;;;;;;0.90;0.53;;;21.80;99.90;;;22.18;51.88;101627.63;4972172;28;97328;-55
2023/06/27 05:41:48;;;;;;;3.00;1.20;;;21.80;99.90;;;22.09;50.27;101622.88;4982773;28;97441;-58
2023/06/27 05:44:13;;;;;;;2.67;1.33;;;21.70;99.90;;;22.02;49.97;101632.31;4976736;27;97964;-55
2023/06/27 05:46:39;;;;;;;2.67;1.43;;;21.60;99.90;;;22.00;51.26;101628.88;4970195;28;118103;-54
2023/06/27 05:49:07;;;;;;;3.07;1.10;;;21.50;99.90;;;21.94;48.43;101629.28;4979554;28;97461;-56
2023/06/27 05:51:33;;;;;;;2.87;1.23;;;21.50;99.90;;;21.94;51.67;101631.97;4978569;28;97564;-55
2023/06/27 05:53:59;;;;;;;2.70;1.17;;;21.50;99.90;;;21.95;51.80;101623.78;4973615;28;106266;-55
2023/06/27 05:56:24;;;;;;;4.57;1.20;;;21.50;99.90;;;21.93;50.27;101624.88;4980819;28;123975;-52
2023/06/27 05:58:50;;;;;;;5.93;1.10;;;21.50;99.90;;;21.92;51.42;101625.84;4977814;28;101755;-55
2023/06/27 06:01:16;;;;;;;2.17;1.10;;;21.50;99.90;;;21.86;51.47;101629.81;4979114;28;100874;-56
2023/06/27 06:03:43;;;;;;;1.73;1.00;;;21.40;99.90;;;21.74;48.73;101627.94;4979552;27;98373;-55
2023/06/27 06:06:11;;;;;;;2.53;1.00;;;21.30;99.90;;;21.77;49.20;101621.50;4969673;28;97804;-56
2023/06/27 06:08:36;;;;;;;2.73;1.23;;;21.40;99.90;;;21.72;52.16;101618.28;4974664;28;97202;-56
2023/06/27 06:11:02;;;;;;;3.70;1.03;;;21.30;99.90;;;21.71;50.83;101621.94;4973770;28;97571;-51
2023/06/27 06:13:28;;;;;;;2.10;1.00;;;21.30;99.90;;;21.65;50.41;101621.38;4970255;28;97548;-57
2023/06/27 06:15:54;;;;;;;5.70;1.10;;;21.20;99.90;;;21.64;50.67;101616.97;4975295;28;97439;-55
2023/06/27 06:18:19;;;;;;;4.37;1.20;;;21.20;99.90;;;21.62;50.81;101618.88;4974521;28;103126;-56
2023/06/27 06:20:45;;;;;;;1.30;0.90;;;21.20;99.90;;;21.59;50.10;101619.09;4971984;27;99389;-57
2023/06/27 06:23:11;;;;;;;3.00;0.80;;;21.20;99.90;;;21.63;53.23;101614.38;4975469;28;97931;-57
2023/06/27 06:25:37;;;;;;;3.90;0.93;;;21.20;99.90;;;21.65;52.58;101613.31;4973676;28;107913;-53
2023/06/27 06:28:03;;;;;;;6.57;1.40;;;21.30;99.90;;;21.66;51.98;101615.03;4979516;28;102696;-57
2023/06/27 06:30:29;;;;;;;1.60;0.77;;;21.30;99.90;;;21.60;50.06;101620.81;4974427;28;99147;-56
2023/06/27 06:32:54;;;;;;;3.53;1.30;;;21.30;99.90;;;21.57;49.99;101615.66;4972210;28;97316;-55
2023/06/27 06:35:20;;;;;;;6.13;1.10;;;21.20;99.90;;;21.56;50.39;101624.69;4977361;27;97554;-55
2023/06/27 06:37:46;;;;;;;3.07;1.23;;;21.20;99.90;;;21.56;49.94;101619.31;4976452;28;97478;-52
2023/06/27 06:40:12;;;;;;;2.73;1.13;;;21.20;99.90;;;21.60;52.67;101618.13;4972217;28;103982;-54
2023/06/27 06:42:38;;;;;;;4.40;1.30;;;21.30;99.90;;;21.59;51.35;101623.59;4978726;28;98300;-56
2023/06/27 06:45:04;;;;;;;2.83;0.90;;;21.30;99.90;;;21.53;51.62;101624.84;4974282;27;97299;-59
2023/06/27 06:47:30;;;;;;;4.00;1.07;;;21.20;99.90;;;21.50;51.55;101625.06;4962881;28;97452;-57
2023/06/27 06:49:56;;;;;;;3.80;1.10;;;21.20;99.90;;;21.51;52.34;101616.06;4980949;28;96975;-56
2023/06/27 06:52:22;;;;;;;1.50;1.10;;;21.20;99.90;;;21.47;50.48;101619.91;4982733;28;101208;-55
2023/06/27 06:54:48;;;;;;;1.97;0.83;;;21.10;99.90;;;21.55;52.75;101611.31;4981196;27;97203;-57
2023/06/27 06:57:14;;;;;;;2.30;1.10;;;21.20;99.90;;;21.52;50.89;101617.78;4987222;28;97253;-56
2023/06/27 06:59:40;;;;;;;1.90;0.93;;;21.20;99.90;;;21.56;51.60;101613.94;4981291;28;97306;-55
2023/06/27 07:02:07;;;;;;;3.10;1.00;;;21.20;99.90;;;21.58;51.01;101611.16;4973038;28;97223;-55
2023/06/27 07:04:32;;;;;;;4.80;1.07;;;21.20;99.90;;;21.51;50.69;101608.00;4978359;28;102644;-54
2023/06/27 07:06:58;;;;;;;4.87;1.30;;;21.20;99.90;;;21.54;51.88;101610.47;4981609;28;96662;-52
2023/06/27 07:09:24;;;;;;;3.00;1.23;;;21.20;99.90;;;21.58;52.13;101609.31;4961763;28;97041;-52
2023/06/27 07:11:51;;;;;;;2.20;1.20;;;21.30;99.90;;;21.61;51.48;101614.47;4975063;28;99001;-55
2023/06/27 07:14:19;;;;;;;4.03;1.20;;;21.30;99.90;;;21.66;51.83;101615.03;4964285;28;99911;-55
2023/06/27 07:16:45;;;;;;;4.73;1.20;;;21.40;99.90;;;21.64;51.22;101616.97;4977694;28;97311;-52
2023/06/27 07:19:11;;;;;;;2.93;1.50;;;21.40;99.90;;;21.64;51.36;101616.97;4976833;28;97394;-56
2023/06/27 07:21:37;;;;;;;4.80;1.40;;;21.30;99.90;;;21.67;51.54;101611.38;4973094;28;97479;-54
2023/06/27 07:24:05;;;;;;;4.90;1.63;;;21.40;99.90;;;21.69;51.25;101613.94;4984861;27;97764;-53
2023/06/27 07:26:31;;;;;;;4.47;1.73;;;21.40;99.90;;;21.74;51.39;101619.03;4988906;28;97363;-53
2023/06/27 07:28:57;;;;;;;8.07;1.20;;;21.50;99.90;;;21.78;51.32;101615.16;4980561;28;97639;-56
2023/06/27 07:31:22;;;;;;;3.63;0.97;;;21.50;99.90;;;21.78;52.52;101617.84;4980060;27;102979;-55
2023/06/27 07:33:48;;;;;;;4.73;1.53;;;21.50;99.90;;;21.80;51.75;101615.94;4970118;28;97068;-58
2023/06/27 07:36:14;;;;;;;1.53;0.97;;;21.50;99.90;;;21.84;52.04;101622.78;4977120;27;97175;-56
2023/06/27 07:38:40;;;;;;;4.00;1.60;;;21.60;99.90;;;21.82;51.57;101614.84;4980428;28;98675;-55
2023/06/27 07:41:06;;;;;;;1.47;0.80;;;21.50;99.90;;;21.85;52.26;101614.66;4982738;28;97960;-56
2023/06/27 07:43:31;;;;;;;3.73;1.07;;;21.60;99.90;;;21.87;51.22;101617.25;4980908;28;98907;-56
2023/06/27 07:45:57;;;;;;;1.73;1.00;;;21.60;99.90;;;21.82;51.64;101606.78;4980628;28;96972;-54
2023/06/27 07:48:23;;;;;;;4.10;1.13;;;21.50;99.90;;;21.89;52.44;101609.94;4977353;28;97095;-52
2023/06/27 07:50:49;;;;;;;3.43;1.17;;;21.60;99.90;;;21.94;51.92;101607.78;4977643;28;97788;-51
2023/06/27 07:53:15;;;;;;;2.60;1.40;;;21.70;99.90;;;21.93;50.97;101611.44;4981990;28;98754;-56
2023/06/27 07:55:41;;;;;;;2.70;1.30;;;21.70;99.90;;;21.91;51.37;101603.50;4978383;28;97092;-50
2023/06/27 07:58:06;;;;;;;4.67;1.03;;;21.60;99.90;;;21.93;51.88;101600.69;4983463;28;97008;-57
2023/06/27 08:00:33;;;;;;;3.30;1.20;;;21.70;99.90;;;22.00;51.35;101596.66;4969142;28;96911;-56
2023/06/27 08:02:59;;;;;;;3.67;1.10;;;21.80;99.90;;;22.02;51.46;101594.72;4975730;27;98894;-54
2023/06/27 08:05:27;;;;;;;2.23;1.10;;;21.80;99.90;;;22.00;50.84;101596.66;4980520;28;97241;-56
2023/06/27 08:07:53;;;;;;;3.93;1.10;;;21.80;99.90;;;21.99;51.20;101594.94;4980004;28;97329;-57
2023/06/27 08:10:19;;;;;;;2.87;1.30;;;21.80;99.90;;;22.04;51.65;101592.78;4975919;28;97883;-55
2023/06/27 08:12:45;;;;;;;2.50;1.00;;;21.80;99.90;;;22.07;51.55;101592.59;4977698;28;110236;-55
2023/06/27 08:15:11;;;;;;;7.77;1.20;;;21.90;99.90;;;22.06;50.76;101595.38;4977539;28;97458;-55
2023/06/27 08:17:36;;;;;;;5.07;1.23;;;21.90;99.90;;;22.05;51.69;101604.38;4973027;28;97418;-53
2023/06/27 08:20:04;;;;;;;3.60;0.73;;;21.80;99.90;;;22.13;50.87;101602.94;4981304;28;114258;-56
2023/06/27 08:22:29;;;;;;;3.77;1.07;;;21.90;99.90;;;22.18;51.11;101595.41;4974104;28;103927;-55
2023/06/27 08:24:55;;;;;;;1.87;0.87;;;22.00;99.90;;;22.24;51.28;101600.31;4985338;28;98105;-53
2023/06/27 08:27:21;;;;;;;2.97;1.40;;;22.10;99.90;;;22.26;50.09;101602.91;4981512;27;105961;-55
2023/06/27 08:29:47;;;;;;;2.60;0.87;;;22.10;99.90;;;22.29;50.92;101596.47;4976375;27;98080;-55
2023/06/27 08:32:13;;;;;;;1.73;0.90;;;22.10;99.90;;;22.26;50.75;101590.31;4978398;28;96893;-55
2023/06/27 08:34:39;;;;;;;2.60;1.30;;;22.10;99.90;;;22.29;49.94;101596.47;4979794;28;96630;-56
2023/06/27 08:37:05;;;;;;;4.07;1.50;;;22.20;99.90;;;22.29;49.79;101599.16;4982783;28;101881;-60
2023/06/27 08:39:31;;;;;;;2.23;1.10;;;22.10;99.90;;;22.31;50.37;101594.53;4982893;28;102340;-57
2023/06/27 08:41:57;;;;;;;5.93;1.50;;;22.10;99.90;;;22.35;50.42;101591.53;4981552;28;110394;-53
2023/06/27 08:44:22;;;;;;;3.30;1.40;;;22.20;99.90;;;22.37;50.86;101586.03;4977548;28;97277;-53
2023/06/27 08:46:50;;;;;;;5.73;1.00;;;22.20;99.90;;;22.42;50.28;101570.44;4976516;28;97411;-57
2023/06/27 08:49:26;;;;;;;3.83;1.30;;;22.30;99.90;;;22.40;49.98;101575.91;4973519;28;97660;-57
2023/06/27 08:51:56;;;;;;;4.87;1.03;;;22.30;99.90;;;22.44;49.90;101568.53;4963253;28;97636;-56
2023/06/27 08:54:47;;;;;;;1.17;1.07;;;22.30;99.90;;;22.46;49.68;101577.34;4965866;28;97417;-56
2023/06/27 08:57:13;;;;;;;4.30;1.37;;;22.30;99.90;;;22.50;49.68;101568.06;4935782;28;97234;-58
2023/06/27 08:59:42;;;;;;;4.37;1.10;;;22.40;99.90;;;22.48;49.63;101567.31;4975552;28;124905;-57
2023/06/27 09:02:11;;;;;;;3.00;1.27;;;22.40;99.90;;;22.55;49.65;101561.38;4980088;28;97566;-58
2023/06/27 09:04:41;;;;;;;3.13;1.00;;;22.50;99.90;;;22.60;49.52;101565.59;4975327;28;97375;-57
2023/06/27 09:07:07;;;;;;;2.53;1.20;;;22.50;99.90;;;22.58;49.30;101568.41;4972190;28;97439;-57
2023/06/27 09:09:34;;;;;;;7.27;1.70;;;22.50;99.90;;;22.58;49.36;101565.72;4969353;28;97994;-57
2023/06/27 09:12:02;;;;;;;2.70;1.00;;;22.40;99.90;;;22.61;50.13;101561.94;4970807;28;97257;-56
2023/06/27 09:14:28;;;;;;;4.80;1.03;;;22.50;99.90;;;22.63;49.09;101568.91;4968592;27;97304;-58
2023/06/27 09:16:54;;;;;;;1.70;0.70;;;22.50;99.90;;;22.65;48.86;101566.97;4980612;27;97493;-57
2023/06/27 09:19:21;;;;;;;1.80;1.10;;;22.60;99.90;;;22.66;47.97;101574.06;4952631;28;103669;-58
2023/06/27 09:21:48;;;;;;;4.03;0.90;;;22.60;99.90;;;22.67;48.45;101570.41;4984498;27;97414;-57
2023/06/27 09:24:14;;;;;;;2.10;1.33;;;22.60;99.90;;;22.71;48.65;101574.63;4976196;28;96942;-58
2023/06/27 09:26:41;;;;;;;2.90;0.87;;;22.60;99.90;;;22.71;48.16;101574.63;4978773;28;104619;-55
2023/06/27 09:29:06;;;;;;;2.70;1.20;;;22.60;99.90;;;22.72;46.58;101572.78;4984978;28;100931;-60
2023/06/27 09:31:33;;;;;;;1.23;0.90;;;22.60;99.90;;;22.72;47.41;101560.19;4985686;28;105887;-54
2023/06/27 09:34:06;;;;;;;2.10;1.00;;;22.60;99.90;;;22.71;46.24;101560.28;4977067;28;97083;-54
2023/06/27 09:36:37;;;;;;;2.57;0.67;;;22.60;99.90;;;22.70;46.50;101554.03;4979564;28;107420;-54
2023/06/27 09:39:08;;;;;;;5.83;0.93;;;22.60;99.90;;;22.72;45.84;101562.03;4994295;27;100572;-55
2023/06/27 09:41:47;;;;;;;1.67;0.60;;;22.60;99.90;;;22.73;46.04;101553.84;4986464;28;101317;-56
2023/06/27 09:44:19;;;;;;;2.83;0.80;;;22.60;99.90;;;22.76;47.87;101552.75;4977836;27;97382;-57
2023/06/27 09:46:47;;;;;;;3.87;0.80;;;22.60;99.90;;;22.79;48.07;101558.75;4983585;28;97003;-55
2023/06/27 09:49:17;;;;;;;3.90;0.70;;;22.70;99.90;;;22.81;47.34;101551.44;4976945;28;99026;-53
2023/06/27 09:51:49;;;;;;;2.23;0.80;;;22.70;99.90;;;22.85;46.29;101565.53;4978196;27;97591;-56
2023/06/27 09:54:22;;;;;;;1.57;0.70;;;22.80;99.90;;;22.82;46.39;101568.44;4976407;28;97295;-57
2023/06/27 09:56:52;;;;;;;2.57;0.70;;;22.80;99.90;;;22.81;44.16;101578.34;4976954;28;97503;-56
2023/06/27 09:59:26;;;;;;;2.00;0.70;;;22.70;99.90;;;22.81;45.22;101562.19;4979021;27;97203;-57
2023/06/27 10:01:53;;;;;;;1.67;0.60;;;22.70;99.90;;;22.81;46.08;101572.94;4977908;28;97542;-56
2023/06/27 10:04:19;;;;;;;1.03;0.57;;;22.70;99.90;;;22.80;43.74;101571.25;4980952;28;97626;-55
2023/06/27 10:06:45;;;;;;;1.73;0.80;;;22.70;99.90;;;22.77;44.40;101576.00;4979758;28;97302;-56
2023/06/27 10:09:11;;;;;;;0.83;0.83;;;22.70;99.90;;;22.73;47.31;101563.75;4968535;28;97497;-55
2023/06/27 10:11:38;;;;;;;1.20;0.70;;;22.70;99.90;;;22.69;47.66;101568.47;4975968;28;110586;-57